Time;durP1;ratioP1;P1;durP2;ratioP2;P2;SDS_P1;SDS_P2;PMS_P1;PMS_P2;Temp;Humidity;BMP_temperature;BMP_pressure;BME280_temperature;BME280_humidity;BME280_pressure;Samples;Min_cycle;Max_cycle;Signal;HPM_P1;HPM_P2
2021/04/18 00:00:16;;;;;;;27.23;18.67;;;8.20;99.90;;;;;;5031717;28;20108;-77
2021/04/18 00:02:42;;;;;;;27.60;18.90;;;8.20;99.90;;;;;;5032444;28;20048;-75
2021/04/18 00:05:09;;;;;;;25.75;18.75;;;8.20;99.90;;;;;;5031666;28;20369;-77
2021/04/18 00:07:34;;;;;;;27.95;18.45;;;8.20;99.90;;;;;;5031881;28;20025;-77
2021/04/18 00:10:00;;;;;;;28.50;20.30;;;8.10;99.90;;;;;;5031707;28;20029;-74
2021/04/18 00:12:26;;;;;;;28.45;19.25;;;8.00;99.90;;;;;;5032215;28;20026;-75
2021/04/18 00:14:53;;;;;;;25.45;17.77;;;8.10;99.90;;;;;;5013930;28;20424;-76
2021/04/18 00:17:19;;;;;;;25.40;18.05;;;8.10;99.90;;;;;;5032105;28;20432;-77
2021/04/18 00:19:45;;;;;;;26.90;18.73;;;8.10;99.90;;;;;;5031408;28;20488;-76
2021/04/18 00:22:11;;;;;;;22.33;17.02;;;8.00;99.90;;;;;;5032133;28;20025;-74
2021/04/18 00:24:37;;;;;;;24.35;18.05;;;7.90;99.90;;;;;;5031198;28;20083;-75
2021/04/18 00:27:04;;;;;;;24.83;18.38;;;8.00;99.90;;;;;;5031678;28;20032;-77
2021/04/18 00:29:30;;;;;;;27.20;18.20;;;8.10;99.90;;;;;;5031287;28;20044;-76
2021/04/18 00:31:55;;;;;;;26.05;17.25;;;8.00;99.90;;;;;;5032189;28;20033;-77
2021/04/18 00:34:21;;;;;;;25.50;18.30;;;8.00;99.90;;;;;;5031017;28;20512;-77
2021/04/18 00:36:47;;;;;;;25.95;17.90;;;8.00;99.90;;;;;;5025391;28;20419;-77
2021/04/18 00:39:13;;;;;;;24.10;18.25;;;8.00;99.90;;;;;;5011579;28;20053;-76
2021/04/18 00:41:39;;;;;;;23.83;18.25;;;7.80;99.90;;;;;;5011931;28;20022;-75
2021/04/18 00:44:05;;;;;;;24.15;16.98;;;7.90;99.90;;;;;;5011934;28;20466;-75
2021/04/18 00:46:31;;;;;;;25.67;17.52;;;7.90;99.90;;;;;;5010967;28;20037;-75
2021/04/18 00:48:56;;;;;;;24.85;17.33;;;7.80;99.90;;;;;;5011765;28;20048;-75
2021/04/18 00:51:22;;;;;;;26.13;17.80;;;7.70;99.90;;;;;;5011249;28;20033;-74
2021/04/18 00:53:48;;;;;;;22.77;16.50;;;7.70;99.90;;;;;;5011731;28;20057;-75
2021/04/18 00:56:14;;;;;;;24.55;18.42;;;7.90;99.90;;;;;;5010868;28;20029;-76
2021/04/18 00:58:40;;;;;;;26.65;16.67;;;7.90;99.90;;;;;;5011764;28;20022;-76
2021/04/18 01:01:07;;;;;;;24.60;17.27;;;7.90;99.90;;;;;;5011394;28;20057;-75
2021/04/18 01:03:33;;;;;;;25.50;17.15;;;7.70;99.90;;;;;;5011387;28;20489;-76
2021/04/18 01:05:59;;;;;;;26.40;18.00;;;7.60;99.90;;;;;;5011082;28;20025;-76
2021/04/18 01:08:25;;;;;;;25.45;17.40;;;7.80;99.90;;;;;;5011705;28;20032;-77
2021/04/18 01:10:51;;;;;;;28.52;18.48;;;7.70;99.90;;;;;;5010827;28;20041;-75
2021/04/18 01:13:16;;;;;;;25.88;17.00;;;7.80;99.90;;;;;;5011416;28;20033;-76
2021/04/18 01:15:42;;;;;;;29.02;17.35;;;8.00;99.90;;;;;;5010882;28;20065;-77
2021/04/18 01:18:08;;;;;;;28.98;18.42;;;8.00;99.90;;;;;;5011307;28;20370;-76
2021/04/18 01:20:34;;;;;;;25.33;18.20;;;8.00;99.90;;;;;;5011047;28;20521;-75
2021/04/18 01:23:00;;;;;;;25.08;18.23;;;7.80;99.90;;;;;;4993946;28;20022;-76
2021/04/18 01:25:26;;;;;;;29.13;18.98;;;7.80;99.90;;;;;;5011171;28;20545;-75
2021/04/18 01:27:52;;;;;;;27.60;18.60;;;7.90;99.90;;;;;;5011538;28;20018;-76
2021/04/18 01:30:25;;;;;;;25.60;17.92;;;8.00;99.90;;;;;;5010836;28;20040;-75
2021/04/18 01:32:52;;;;;;;25.38;18.60;;;8.00;99.90;;;;;;5011164;28;20021;-76
2021/04/18 01:35:19;;;;;;;26.02;17.58;;;8.00;99.90;;;;;;5010554;28;20057;-75
2021/04/18 01:37:45;;;;;;;26.73;17.48;;;8.00;99.90;;;;;;5024091;28;20036;-75
2021/04/18 01:40:13;;;;;;;25.27;18.65;;;8.00;99.90;;;;;;5030615;28;20508;-74
2021/04/18 01:42:40;;;;;;;27.13;18.63;;;8.00;99.90;;;;;;5031162;28;20022;-75
2021/04/18 01:45:07;;;;;;;26.85;18.40;;;8.00;99.90;;;;;;5030439;28;20036;-74
2021/04/18 01:47:33;;;;;;;27.08;18.88;;;7.90;99.90;;;;;;5030931;28;20033;-76
2021/04/18 01:49:59;;;;;;;25.73;18.17;;;7.90;99.90;;;;;;5031206;28;20385;-76
2021/04/18 01:52:26;;;;;;;30.00;18.63;;;8.10;99.90;;;;;;5030206;28;20061;-76
2021/04/18 01:54:52;;;;;;;24.10;17.45;;;8.20;99.90;;;;;;5030788;28;20433;-76
2021/04/18 01:57:18;;;;;;;26.50;18.38;;;8.20;99.90;;;;;;5030072;28;20283;-77
2021/04/18 01:59:44;;;;;;;23.27;16.33;;;8.10;99.90;;;;;;5013132;28;20473;-77
2021/04/18 02:02:12;;;;;;;24.50;16.38;;;8.10;99.90;;;;;;5034143;28;20088;-76
2021/04/18 02:04:38;;;;;;;24.98;17.48;;;8.20;99.90;;;;;;5034487;28;20025;-74
2021/04/18 02:07:05;;;;;;;26.60;17.85;;;8.20;99.90;;;;;;5033987;28;20386;-76
2021/04/18 02:09:32;;;;;;;29.02;16.73;;;8.10;99.90;;;;;;5034629;28;20121;-75
2021/04/18 02:12:05;;;;;;;21.95;16.67;;;8.10;99.90;;;;;;5033214;28;20032;-76
2021/04/18 02:14:32;;;;;;;24.30;17.85;;;7.90;99.90;;;;;;5034724;28;20449;-76
2021/04/18 02:16:58;;;;;;;24.73;17.88;;;7.90;99.90;;;;;;5034262;28;20042;-76
2021/04/18 02:19:24;;;;;;;24.35;17.45;;;7.90;99.90;;;;;;5034212;28;20040;-76
2021/04/18 02:21:49;;;;;;;27.85;17.02;;;7.90;99.90;;;;;;5033733;28;20150;-75
2021/04/18 02:24:15;;;;;;;29.55;18.40;;;8.00;99.90;;;;;;5016659;28;20033;-76
2021/04/18 02:26:41;;;;;;;25.90;17.67;;;8.00;99.90;;;;;;5033366;28;20043;-75
2021/04/18 02:29:07;;;;;;;27.55;18.60;;;7.90;99.90;;;;;;5034059;28;20112;-74
2021/04/18 02:31:33;;;;;;;24.48;17.02;;;7.80;99.90;;;;;;5033535;28;20092;-74
2021/04/18 02:33:59;;;;;;;26.48;18.25;;;7.90;99.90;;;;;;5033620;28;20072;-75
2021/04/18 02:36:24;;;;;;;25.73;18.05;;;8.00;99.90;;;;;;5033004;28;20084;-73
2021/04/18 02:38:50;;;;;;;26.27;18.58;;;8.00;99.90;;;;;;5014328;28;20030;-77
2021/04/18 02:41:16;;;;;;;28.85;17.85;;;8.00;99.90;;;;;;4995737;28;20026;-73
2021/04/18 02:43:42;;;;;;;26.40;18.75;;;8.10;99.90;;;;;;5014058;28;20025;-75
2021/04/18 02:46:09;;;;;;;29.65;18.95;;;8.10;99.90;;;;;;5013691;28;20042;-75
2021/04/18 02:48:35;;;;;;;30.45;18.67;;;8.20;99.90;;;;;;5013965;28;20528;-74
2021/04/18 02:51:01;;;;;;;30.77;18.92;;;8.20;99.90;;;;;;5013461;28;20034;-75
2021/04/18 02:53:26;;;;;;;27.17;17.05;;;8.20;99.90;;;;;;5013671;28;20478;-75
2021/04/18 02:55:52;;;;;;;25.25;17.70;;;8.20;99.90;;;;;;5013871;28;20061;-74
2021/04/18 02:58:18;;;;;;;29.08;18.30;;;8.10;99.90;;;;;;5012515;28;20056;-75
2021/04/18 03:00:44;;;;;;;27.75;19.15;;;7.90;99.90;;;;;;5014076;28;20077;-77
2021/04/18 03:03:09;;;;;;;29.60;19.48;;;7.80;99.90;;;;;;5012917;28;20030;-77
2021/04/18 03:05:35;;;;;;;31.20;18.50;;;7.70;99.90;;;;;;5013692;28;20025;-78
2021/04/18 03:08:02;;;;;;;23.70;15.38;;;7.80;99.90;;;;;;5012929;28;20034;-73
2021/04/18 03:10:28;;;;;;;19.75;14.35;;;7.80;99.90;;;;;;5013345;28;20022;-76
2021/04/18 03:12:55;;;;;;;20.25;13.82;;;7.70;99.90;;;;;;5011602;28;20442;-75
2021/04/18 03:15:21;;;;;;;21.00;12.35;;;7.30;99.90;;;;;;5013798;28;20042;-78
2021/04/18 03:17:47;;;;;;;16.98;12.50;;;7.40;99.90;;;;;;5012764;28;20504;-78
2021/04/18 03:20:14;;;;;;;19.67;12.45;;;7.40;99.90;;;;;;5013440;28;20061;-76
2021/04/18 03:22:40;;;;;;;15.75;11.07;;;7.30;99.90;;;;;;5012810;28;20022;-77
2021/04/18 03:25:06;;;;;;;15.40;11.52;;;7.20;99.90;;;;;;5013392;28;20097;-75
2021/04/18 03:27:32;;;;;;;14.63;10.80;;;7.50;99.90;;;;;;5012440;28;20100;-77
2021/04/18 03:29:58;;;;;;;16.90;11.32;;;7.50;99.90;;;;;;5013257;28;20029;-75
2021/04/18 03:32:23;;;;;;;13.95;10.65;;;7.60;99.90;;;;;;5012983;28;20034;-75
2021/04/18 03:34:49;;;;;;;15.70;11.02;;;7.20;99.90;;;;;;5012699;28;20042;-76
2021/04/18 03:37:15;;;;;;;17.90;11.93;;;7.20;99.90;;;;;;5017128;28;20109;-76
2021/04/18 03:39:42;;;;;;;16.73;11.60;;;7.30;99.90;;;;;;5032237;28;20451;-77
2021/04/18 03:42:09;;;;;;;17.45;10.98;;;7.50;99.90;;;;;;5031225;28;20515;-76
2021/04/18 03:44:35;;;;;;;16.20;10.48;;;7.50;99.90;;;;;;5031861;28;20412;-75
2021/04/18 03:47:01;;;;;;;16.20;10.73;;;7.20;99.90;;;;;;5031295;28;20083;-76
2021/04/18 03:49:27;;;;;;;16.85;11.45;;;7.00;99.90;;;;;;5031755;28;20025;-75
2021/04/18 03:51:53;;;;;;;15.10;10.88;;;7.10;99.90;;;;;;5031267;28;20029;-76
2021/04/18 03:54:21;;;;;;;17.85;11.25;;;7.00;99.90;;;;;;5031569;28;20038;-77
2021/04/18 03:56:47;;;;;;;17.15;11.35;;;7.10;99.90;;;;;;5031892;28;20048;-74
2021/04/18 03:59:13;;;;;;;16.77;10.35;;;7.10;99.90;;;;;;5030908;28;20037;-75
2021/04/18 04:01:39;;;;;;;18.38;11.48;;;7.20;99.90;;;;;;5032076;28;20385;-75
2021/04/18 04:04:04;;;;;;;18.38;11.40;;;7.00;99.90;;;;;;5031030;28;20036;-74
2021/04/18 04:06:30;;;;;;;18.55;12.00;;;7.20;99.90;;;;;;5031372;28;20083;-76
2021/04/18 04:08:56;;;;;;;20.80;11.50;;;7.10;99.90;;;;;;5030921;28;20032;-75
2021/04/18 04:11:21;;;;;;;19.35;11.60;;;7.10;99.90;;;;;;5031768;28;20025;-76
2021/04/18 04:13:47;;;;;;;20.48;11.52;;;6.90;99.90;;;;;;5030712;28;20424;-74
2021/04/18 04:16:13;;;;;;;18.90;12.68;;;6.80;99.90;;;;;;5031544;28;20543;-74
2021/04/18 04:18:39;;;;;;;19.30;12.85;;;6.90;99.90;;;;;;5030733;28;20030;-77
2021/04/18 04:21:05;;;;;;;18.67;11.98;;;6.90;99.90;;;;;;5013773;28;20026;-74
2021/04/18 04:23:31;;;;;;;17.25;12.13;;;6.90;99.90;;;;;;5030124;28;20103;-77
2021/04/18 04:25:57;;;;;;;17.08;12.10;;;7.00;99.90;;;;;;5031266;28;20101;-77
2021/04/18 04:28:22;;;;;;;14.95;11.65;;;7.10;99.90;;;;;;5030827;28;20197;-78
2021/04/18 04:30:49;;;;;;;18.52;12.48;;;7.20;99.90;;;;;;5031133;28;20029;-76
2021/04/18 04:33:14;;;;;;;18.15;11.75;;;7.10;99.90;;;;;;5030433;28;20057;-76
2021/04/18 04:35:41;;;;;;;16.80;11.98;;;7.00;99.90;;;;;;5008053;28;684125;-73
2021/04/18 04:38:07;;;;;;;18.35;11.85;;;7.00;99.90;;;;;;5019695;28;20034;-73
2021/04/18 04:40:33;;;;;;;16.85;12.90;;;6.90;99.90;;;;;;5012359;28;20208;-76
2021/04/18 04:42:59;;;;;;;22.05;13.30;;;6.90;99.90;;;;;;5010859;28;20084;-73
2021/04/18 04:45:25;;;;;;;20.05;12.55;;;6.90;99.90;;;;;;5012080;28;20113;-76
2021/04/18 04:47:50;;;;;;;22.38;13.52;;;6.90;99.90;;;;;;5011319;28;20160;-76
2021/04/18 04:50:16;;;;;;;19.80;13.23;;;7.10;99.90;;;;;;5012112;28;20025;-76
2021/04/18 04:52:42;;;;;;;19.40;12.70;;;7.10;99.90;;;;;;5011410;28;20057;-75
2021/04/18 04:55:08;;;;;;;18.23;12.35;;;7.20;99.90;;;;;;5011583;28;20030;-75
2021/04/18 04:57:34;;;;;;;19.77;12.75;;;7.10;99.90;;;;;;5011973;28;20409;-76
2021/04/18 04:59:59;;;;;;;17.38;11.93;;;6.90;99.90;;;;;;5011177;28;20505;-73
2021/04/18 05:02:25;;;;;;;18.42;11.82;;;6.90;99.90;;;;;;5011326;28;20052;-76
2021/04/18 05:04:51;;;;;;;22.20;12.82;;;6.90;99.90;;;;;;5011233;28;20053;-76
2021/04/18 05:07:17;;;;;;;17.50;11.93;;;6.90;99.90;;;;;;4994231;28;20026;-77
2021/04/18 05:09:43;;;;;;;19.05;12.15;;;7.00;99.90;;;;;;5010934;28;20030;-77
2021/04/18 05:12:09;;;;;;;18.20;11.60;;;7.00;99.90;;;;;;5011533;28;20092;-76
2021/04/18 05:14:35;;;;;;;19.63;12.05;;;6.90;99.90;;;;;;5010887;28;20037;-78
2021/04/18 05:17:02;;;;;;;18.17;11.68;;;7.00;99.90;;;;;;5012035;28;20026;-75
2021/04/18 05:19:27;;;;;;;19.63;12.35;;;6.90;99.90;;;;;;5010913;28;20045;-78
2021/04/18 05:21:53;;;;;;;16.52;11.90;;;7.10;99.90;;;;;;5011507;28;20025;-77
2021/04/18 05:24:19;;;;;;;15.45;11.55;;;7.20;99.90;;;;;;5010859;28;20381;-76
2021/04/18 05:26:44;;;;;;;20.27;12.27;;;7.20;99.90;;;;;;5011634;28;20493;-76
2021/04/18 05:29:10;;;;;;;13.82;10.77;;;7.20;99.90;;;;;;4993270;28;20436;-76
2021/04/18 05:31:36;;;;;;;17.65;10.95;;;7.10;99.90;;;;;;5011385;28;20046;-77
2021/04/18 05:34:02;;;;;;;14.85;11.10;;;7.20;99.90;;;;;;4992885;28;20038;-77
2021/04/18 05:36:28;;;;;;;17.10;11.50;;;7.40;99.90;;;;;;5014077;28;20088;-76
2021/04/18 05:38:53;;;;;;;13.95;10.40;;;7.40;99.90;;;;;;5030912;28;20021;-76
2021/04/18 05:41:19;;;;;;;16.50;10.57;;;7.20;99.90;;;;;;5035179;28;20033;-79
2021/04/18 05:43:48;;;;;;;15.95;10.75;;;7.30;99.90;;;;;;5016632;28;20068;-76
2021/04/18 05:46:13;;;;;;;15.63;10.73;;;7.60;99.90;;;;;;5035306;28;20029;-75
2021/04/18 05:48:39;;;;;;;13.30;9.90;;;7.60;99.90;;;;;;5034432;28;20108;-76
2021/04/18 05:51:05;;;;;;;14.40;10.55;;;7.30;99.90;;;;;;5034910;28;20036;-75
2021/04/18 05:53:32;;;;;;;15.02;11.05;;;7.30;99.90;;;;;;5034662;28;20029;-76
2021/04/18 05:55:58;;;;;;;14.90;10.35;;;7.30;99.90;;;;;;5034943;28;20035;-75
2021/04/18 05:58:23;;;;;;;15.05;11.07;;;7.20;99.90;;;;;;5034713;28;20356;-74
2021/04/18 06:00:49;;;;;;;14.57;10.60;;;7.30;99.90;;;;;;5034003;28;20072;-75
2021/04/18 06:03:15;;;;;;;15.35;10.60;;;7.50;99.90;;;;;;5017008;28;20505;-74
2021/04/18 06:05:42;;;;;;;14.85;11.27;;;7.60;99.90;;;;;;5033802;28;20478;-73
2021/04/18 06:08:08;;;;;;;16.33;11.10;;;7.90;99.90;;;;;;5034687;28;20469;-76
2021/04/18 06:10:34;;;;;;;14.07;9.77;;;7.70;99.90;;;;;;5033792;28;20081;-75
2021/04/18 06:12:59;;;;;;;16.08;10.70;;;7.50;99.90;;;;;;5034065;28;20083;-75
2021/04/18 06:15:27;;;;;;;14.57;9.65;;;7.50;99.90;;;;;;5033956;28;20108;-74
2021/04/18 06:17:53;;;;;;;13.00;9.88;;;7.60;99.90;;;;;;5034315;28;20030;-75
2021/04/18 06:20:19;;;;;;;12.15;9.20;;;7.70;99.90;;;;;;5033586;28;20026;-74
2021/04/18 06:22:44;;;;;;;12.00;8.65;;;7.60;99.90;;;;;;5034293;28;20053;-74
2021/04/18 06:25:11;;;;;;;11.88;9.05;;;7.60;99.90;;;;;;5033928;28;20096;-75
2021/04/18 06:27:37;;;;;;;12.90;9.60;;;7.60;99.90;;;;;;5034096;28;20029;-76
2021/04/18 06:30:03;;;;;;;13.35;9.68;;;7.70;99.90;;;;;;5033643;28;20029;-75
2021/04/18 06:32:29;;;;;;;12.52;9.50;;;7.90;99.90;;;;;;5034139;28;20033;-75
2021/04/18 06:34:55;;;;;;;17.33;12.13;;;8.10;99.90;;;;;;5028170;28;20517;-75
2021/04/18 06:37:21;;;;;;;24.38;15.15;;;8.30;99.90;;;;;;5015594;28;20037;-76
2021/04/18 06:39:47;;;;;;;23.35;15.13;;;8.20;99.90;;;;;;5013369;28;20092;-77
2021/04/18 06:42:17;;;;;;;14.85;10.73;;;8.40;99.90;;;;;;5013902;28;20037;-75
2021/04/18 06:44:43;;;;;;;14.50;11.07;;;8.20;99.90;;;;;;5013475;28;20025;-75
2021/04/18 06:47:09;;;;;;;14.57;10.30;;;8.20;99.90;;;;;;5013939;28;20041;-76
2021/04/18 06:49:38;;;;;;;33.67;20.23;;;8.00;99.90;;;;;;5013463;28;20030;-76
2021/04/18 06:52:06;;;;;;;15.68;9.98;;;8.00;99.90;;;;;;5013968;28;20022;-72
2021/04/18 06:54:32;;;;;;;13.63;9.20;;;7.70;99.90;;;;;;5013345;28;20037;-74
2021/04/18 06:56:58;;;;;;;16.05;9.75;;;7.70;99.90;;;;;;5014052;28;20026;-76
2021/04/18 06:59:23;;;;;;;15.60;10.80;;;7.70;99.90;;;;;;4995018;28;20062;-74
2021/04/18 07:01:49;;;;;;;18.40;9.73;;;7.70;99.90;;;;;;5013737;28;20511;-74
2021/04/18 07:04:16;;;;;;;15.85;10.35;;;7.70;99.90;;;;;;5013738;28;20077;-76
2021/04/18 07:06:44;;;;;;;16.75;10.30;;;7.70;99.90;;;;;;5010105;28;20010;-75
2021/04/18 07:09:12;;;;;;;16.25;10.20;;;7.80;99.90;;;;;;5012667;28;20026;-75
2021/04/18 07:11:51;;;;;;;16.10;11.27;;;7.90;99.90;;;;;;4994764;28;20025;-74
2021/04/18 07:14:33;;;;;;;18.38;12.07;;;8.20;99.90;;;;;;5012894;28;20117;-77
2021/04/18 07:17:10;;;;;;;53.72;33.28;;;8.60;99.90;;;;;;5012124;28;20018;-76
2021/04/18 07:19:39;;;;;;;20.35;14.07;;;8.80;99.90;;;;;;5011553;28;20022;-74
2021/04/18 07:22:06;;;;;;;19.25;11.93;;;8.60;99.90;;;;;;5005283;28;20023;-78
2021/04/18 07:24:33;;;;;;;19.00;10.73;;;8.40;99.90;;;;;;5010990;28;20034;-77
2021/04/18 07:27:05;;;;;;;17.35;11.32;;;8.40;99.90;;;;;;5012468;28;20148;-77
2021/04/18 07:29:34;;;;;;;17.08;10.48;;;8.30;99.90;;;;;;5010606;28;20041;-77
2021/04/18 07:32:17;;;;;;;16.70;10.50;;;8.00;99.90;;;;;;5009733;28;20026;-77
2021/04/18 07:34:42;;;;;;;19.83;11.60;;;8.00;99.90;;;;;;5010966;28;20073;-77
2021/04/18 07:37:09;;;;;;;15.80;11.50;;;8.00;99.90;;;;;;5012549;28;20053;-77
2021/04/18 07:39:54;;;;;;;18.70;10.90;;;7.90;99.90;;;;;;5031152;28;20030;-75
2021/04/18 07:42:41;;;;;;;18.52;11.13;;;8.00;99.90;;;;;;5032531;28;20437;-77
2021/04/18 07:45:15;;;;;;;17.63;10.07;;;8.00;99.90;;;;;;5031937;28;20476;-76
2021/04/18 07:47:43;;;;;;;14.68;10.25;;;7.90;99.90;;;;;;5031797;28;20541;-77
2021/04/18 07:50:12;;;;;;;18.05;10.82;;;7.90;99.90;;;;;;5031976;28;20447;-78
2021/04/18 07:52:44;;;;;;;15.80;9.98;;;7.90;99.90;;;;;;5032567;28;20030;-75
2021/04/18 07:55:11;;;;;;;16.52;10.70;;;8.00;99.90;;;;;;5031416;28;20389;-78
2021/04/18 07:57:39;;;;;;;18.90;11.60;;;7.80;99.90;;;;;;5031833;28;20017;-76
2021/04/18 08:00:07;;;;;;;20.52;11.90;;;7.90;99.90;;;;;;5031298;28;20036;-76
2021/04/18 08:02:34;;;;;;;17.92;10.80;;;8.10;99.90;;;;;;5032128;28;20021;-78
2021/04/18 08:05:00;;;;;;;19.45;12.15;;;8.20;99.90;;;;;;5031909;28;20036;-75
2021/04/18 08:07:26;;;;;;;21.05;11.85;;;8.50;99.90;;;;;;5031725;28;20036;-75
2021/04/18 08:10:32;;;;;;;19.80;11.65;;;9.00;99.90;;;;;;5031760;28;20029;-75
2021/04/18 08:13:01;;;;;;;18.52;11.50;;;9.30;99.90;;;;;;5031505;28;20108;-76
2021/04/18 08:15:27;;;;;;;18.50;12.90;;;9.00;99.90;;;;;;5031348;28;20125;-76
2021/04/18 08:18:14;;;;;;;19.67;12.30;;;8.60;99.90;;;;;;5031964;28;20412;-77
2021/04/18 08:20:45;;;;;;;21.15;12.13;;;8.90;99.90;;;;;;5029754;28;20024;-76
2021/04/18 08:23:16;;;;;;;24.92;12.90;;;8.80;99.90;;;;;;5010448;28;20036;-76
2021/04/18 08:26:04;;;;;;;25.67;16.80;;;8.70;99.90;;;;;;5010667;28;20018;-77
2021/04/18 08:28:31;;;;;;;22.17;14.02;;;9.00;99.90;;;;;;5011829;28;20036;-76
2021/04/18 08:31:01;;;;;;;26.05;14.98;;;9.30;99.90;;;;;;5011262;28;20044;-76
2021/04/18 08:33:39;;;;;;;22.08;14.15;;;9.70;99.90;;;;;;5011959;28;20029;-76
2021/04/18 08:36:19;;;;;;;24.13;15.48;;;9.90;99.90;;;;;;5010688;28;20046;-75
2021/04/18 08:39:09;;;;;;;22.15;14.45;;;10.30;99.90;;;;;;5021974;28;20473;-76
2021/04/18 08:41:51;;;;;;;22.15;13.60;;;10.60;99.90;;;;;;5011262;28;20034;-74
2021/04/18 08:44:20;;;;;;;21.85;14.90;;;10.90;99.90;;;;;;5011462;28;20030;-74
2021/04/18 08:47:10;;;;;;;19.50;13.88;;;11.20;99.90;;;;;;5008947;28;20030;-74
2021/04/18 08:49:51;;;;;;;23.65;13.57;;;11.00;99.90;;;;;;5010877;28;20105;-75
2021/04/18 08:52:24;;;;;;;24.98;13.93;;;11.10;99.90;;;;;;5010443;28;20525;-75
2021/04/18 08:54:52;;;;;;;20.52;13.45;;;11.20;99.90;;;;;;5011654;28;20045;-75
2021/04/18 08:57:24;;;;;;;20.38;14.02;;;11.30;99.90;;;;;;5010418;28;20018;-74
2021/04/18 08:59:55;;;;;;;21.08;13.65;;;11.30;99.90;;;;;;5011662;28;20034;-74
2021/04/18 09:02:21;;;;;;;18.48;13.32;;;11.60;99.90;;;;;;5010257;28;20389;-75
2021/04/18 09:04:49;;;;;;;23.65;14.07;;;11.60;99.90;;;;;;5011471;28;20124;-75
2021/04/18 09:07:20;;;;;;;24.25;14.73;;;11.50;99.90;;;;;;5010404;28;20036;-74
2021/04/18 09:09:47;;;;;;;23.85;14.63;;;11.80;99.90;;;;;;5010280;28;20076;-76
2021/04/18 09:12:16;;;;;;;23.85;14.63;;;12.30;99.90;;;;;;5010237;28;20083;-75
2021/04/18 09:14:44;;;;;;;26.65;16.00;;;12.10;99.90;;;;;;5011200;28;20034;-75
2021/04/18 09:17:13;;;;;;;25.45;15.10;;;12.10;99.90;;;;;;5010847;28;20029;-75
2021/04/18 09:19:40;;;;;;;29.70;15.25;;;12.20;99.90;;;;;;5011358;28;20038;-74
2021/04/18 09:22:35;;;;;;;23.33;14.13;;;12.50;99.90;;;;;;5009783;28;20022;-75
2021/04/18 09:25:10;;;;;;;23.33;14.43;;;12.40;99.90;;;;;;5005587;28;20034;-75
2021/04/18 09:27:39;;;;;;;19.23;13.40;;;12.60;99.90;;;;;;5010054;28;20026;-74
2021/04/18 09:30:07;;;;;;;24.25;14.93;;;12.00;99.90;;;;;;5010860;28;20542;-75
2021/04/18 09:32:41;;;;;;;23.15;14.18;;;12.10;99.90;;;;;;5010688;28;20072;-76
2021/04/18 09:35:09;;;;;;;24.52;14.45;;;12.20;99.90;;;;;;5010925;28;20060;-76
2021/04/18 09:38:05;;;;;;;26.02;15.68;;;12.40;99.90;;;;;;5010202;28;20083;-77
2021/04/18 09:40:36;;;;;;;24.77;14.80;;;11.90;99.90;;;;;;4967263;28;20125;-75
2021/04/18 09:43:04;;;;;;;72.10;43.20;;;11.60;99.90;;;;;;4990852;28;20018;-78
2021/04/18 09:45:32;;;;;;;95.55;57.08;;;12.40;99.90;;;;;;4991630;28;20031;-79
2021/04/18 09:48:13;;;;;;;28.90;20.80;;;12.40;99.90;;;;;;4991083;28;20113;-76
2021/04/18 09:50:39;;;;;;;77.10;45.72;;;12.70;99.90;;;;;;5008123;28;20021;-76
2021/04/18 09:53:21;;;;;;;34.75;20.75;;;13.00;99.90;;;;;;5008780;28;20030;-77
2021/04/18 09:56:08;;;;;;;22.67;14.30;;;13.00;99.90;;;;;;5008824;28;20057;-77
2021/04/18 09:58:36;;;;;;;40.33;26.50;;;12.70;99.90;;;;;;5007345;28;20414;-78
2021/04/18 10:01:05;;;;;;;26.15;17.70;;;13.00;99.90;;;;;;5009422;28;20037;-77
2021/04/18 10:03:37;;;;;;;21.88;15.30;;;13.00;99.90;;;;;;5008255;28;20018;-77
2021/04/18 10:06:04;;;;;;;22.02;13.90;;;12.60;99.90;;;;;;5009121;28;20038;-76
2021/04/18 10:08:32;;;;;;;20.75;13.25;;;12.60;99.90;;;;;;4991129;28;20470;-80
2021/04/18 10:11:09;;;;;;;18.02;13.15;;;12.60;99.90;;;;;;5009424;28;20050;-79
2021/04/18 10:13:39;;;;;;;17.92;12.50;;;12.50;99.90;;;;;;5009112;28;20455;-78
2021/04/18 10:16:06;;;;;;;21.35;12.95;;;12.30;99.90;;;;;;5008638;28;20100;-76
2021/04/18 10:18:33;;;;;;;16.38;12.25;;;12.40;99.90;;;;;;5009381;28;20101;-78
2021/04/18 10:21:21;;;;;;;21.30;12.93;;;12.70;99.90;;;;;;5010516;28;20104;-76
2021/04/18 10:23:48;;;;;;;18.88;12.20;;;13.00;99.90;;;;;;5012531;28;20486;-77
2021/04/18 10:26:18;;;;;;;20.13;12.75;;;12.90;99.90;;;;;;5012799;28;20389;-76
2021/04/18 10:28:44;;;;;;;19.25;12.13;;;12.80;99.90;;;;;;5011641;28;20029;-76
2021/04/18 10:31:16;;;;;;;13.93;10.13;;;12.80;99.90;;;;;;5014375;28;20073;-77
2021/04/18 10:33:42;;;;;;;18.13;11.68;;;12.60;99.90;;;;;;5009109;28;20073;-74
2021/04/18 10:36:09;;;;;;;17.30;10.63;;;12.80;99.90;;;;;;5012615;28;20049;-76
2021/04/18 10:38:35;;;;;;;16.50;10.75;;;13.00;99.90;;;;;;5019374;28;20604;-77
2021/04/18 10:41:02;;;;;;;18.33;11.50;;;13.30;99.90;;;;;;5012308;28;20157;-78
2021/04/18 10:43:28;;;;;;;20.60;12.27;;;12.50;99.90;;;;;;5012811;28;20025;-77
2021/04/18 10:45:54;;;;;;;19.75;12.55;;;12.70;99.90;;;;;;5013663;28;20041;-74
2021/04/18 10:48:20;;;;;;;18.20;12.50;;;12.30;99.90;;;;;;5012849;28;20029;-78
2021/04/18 10:50:46;;;;;;;17.33;11.68;;;12.70;99.90;;;;;;5013131;28;20025;-78
2021/04/18 10:53:12;;;;;;;19.58;13.18;;;12.80;99.90;;;;;;5012762;28;20022;-75
2021/04/18 10:55:38;;;;;;;16.95;11.43;;;13.00;99.90;;;;;;5012462;28;20022;-78
2021/04/18 10:58:04;;;;;;;17.88;11.75;;;13.10;99.90;;;;;;5009544;28;20347;-76
2021/04/18 11:00:30;;;;;;;17.13;10.82;;;13.30;99.90;;;;;;5013168;28;20454;-74
2021/04/18 11:02:56;;;;;;;14.88;10.43;;;12.90;99.90;;;;;;5012556;28;20108;-76
2021/04/18 11:05:21;;;;;;;17.63;10.88;;;12.80;99.90;;;;;;5012971;28;20022;-78
2021/04/18 11:07:48;;;;;;;56.30;37.58;;;12.60;99.90;;;;;;5012142;28;20025;-79
2021/04/18 11:10:14;;;;;;;37.78;25.42;;;12.90;99.90;;;;;;4995307;28;20026;-75
2021/04/18 11:12:41;;;;;;;15.38;11.05;;;12.90;99.90;;;;;;5012450;28;20022;-83
2021/04/18 11:15:09;;;;;;;15.68;9.70;;;12.70;99.90;;;;;;4994757;28;20485;-80
2021/04/18 11:17:37;;;;;;;15.20;9.90;;;12.20;99.90;;;;;;5012259;28;20104;-77
2021/04/18 11:20:11;;;;;;;15.10;9.93;;;12.20;99.90;;;;;;5012979;28;20029;-78
2021/04/18 11:22:38;;;;;;;15.05;9.30;;;12.00;99.90;;;;;;4994718;28;20022;-77
2021/04/18 11:25:12;;;;;;;15.73;10.63;;;11.90;99.90;;;;;;5012743;28;20120;-76
2021/04/18 11:27:39;;;;;;;17.10;11.48;;;12.10;99.90;;;;;;5011934;28;20105;-77
2021/04/18 11:30:13;;;;;;;14.10;9.38;;;13.00;99.90;;;;;;5012675;28;20373;-81
2021/04/18 11:32:39;;;;;;;16.85;9.95;;;12.60;99.90;;;;;;5011962;28;20412;-80
2021/04/18 11:35:08;;;;;;;12.60;9.18;;;12.40;99.90;;;;;;5008463;28;20053;-77
2021/04/18 11:37:34;;;;;;;12.45;9.73;;;12.00;99.90;;;;;;5017227;28;20030;-76
2021/04/18 11:40:00;;;;;;;15.40;10.75;;;12.50;99.90;;;;;;5021035;28;20022;-81
2021/04/18 11:42:26;;;;;;;15.85;9.45;;;13.00;99.90;;;;;;5011644;28;20105;-80
2021/04/18 11:44:52;;;;;;;17.45;9.73;;;13.50;99.90;;;;;;5011658;28;20026;-79
2021/04/18 11:47:18;;;;;;;14.00;10.20;;;13.90;99.90;;;;;;5012470;28;20041;-82
2021/04/18 11:49:45;;;;;;;16.17;9.90;;;13.60;99.90;;;;;;5011520;28;20033;-77
2021/04/18 11:52:12;;;;;;;17.08;11.60;;;13.30;99.90;;;;;;5011982;28;20056;-78
2021/04/18 11:54:38;;;;;;;16.30;10.77;;;13.60;99.90;;;;;;5008360;28;20033;-78
2021/04/18 11:57:04;;;;;;;18.80;10.52;;;13.80;99.90;;;;;;5011634;28;20033;-77
2021/04/18 11:59:30;;;;;;;20.70;10.35;;;13.90;99.90;;;;;;5010224;28;20566;-77
2021/04/18 12:01:56;;;;;;;18.98;11.02;;;14.50;99.90;;;;;;5010341;28;20097;-76
2021/04/18 12:04:22;;;;;;;17.77;11.18;;;15.30;99.90;;;;;;5010908;28;20033;-76
2021/04/18 12:06:48;;;;;;;16.40;11.57;;;15.50;99.90;;;;;;5011353;28;20018;-76
2021/04/18 12:09:16;;;;;;;17.33;11.48;;;15.10;99.90;;;;;;5011184;28;20022;-77
2021/04/18 12:11:42;;;;;;;16.23;11.07;;;14.90;99.90;;;;;;5011238;28;20385;-76
2021/04/18 12:14:07;;;;;;;16.90;11.55;;;15.30;99.90;;;;;;5010636;28;20486;-73
2021/04/18 12:16:33;;;;;;;18.88;12.35;;;16.00;99.90;;;;;;5011560;28;20386;-75
2021/04/18 12:18:59;;;;;;;18.10;12.10;;;16.00;99.90;;;;;;5008994;28;20613;-73
2021/04/18 12:21:25;;;;;;;15.63;10.98;;;15.20;99.90;;;;;;5010797;28;20033;-75
2021/04/18 12:23:51;;;;;;;17.02;11.32;;;15.10;99.90;;;;;;5009786;28;20021;-77
2021/04/18 12:26:16;;;;;;;18.48;11.35;;;14.70;99.90;;;;;;5011276;28;20437;-75
2021/04/18 12:28:42;;;;;;;18.40;11.82;;;14.40;99.90;;;;;;5010923;28;20105;-73
2021/04/18 12:31:08;;;;;;;31.02;20.85;;;14.50;99.90;;;;;;5011251;28;20129;-76
2021/04/18 12:33:37;;;;;;;20.05;13.93;;;15.00;99.90;;;;;;5010090;28;20038;-75
2021/04/18 12:36:05;;;;;;;19.42;13.05;;;15.00;99.90;;;;;;5009930;28;20452;-76
2021/04/18 12:38:31;;;;;;;22.58;14.65;;;15.10;99.90;;;;;;5010897;28;20018;-75